Time;durP1;ratioP1;P1;durP2;ratioP2;P2;SDS_P1;SDS_P2;PMS_P1;PMS_P2;Temp;Humidity;BMP_temperature;BMP_pressure;BME280_temperature;BME280_humidity;BME280_pressure;Samples;Min_cycle;Max_cycle;Signal;HPM_P1;HPM_P2
2023/02/07 00:02:15;;;;;;;;;;;;;;;1.45;43.97;104361.19;5001486;28;19913;-81
2023/02/07 00:04:40;;;;;;;;;;;;;;;1.41;44.22;104357.03;5001380;28;19960;-81
2023/02/07 00:07:06;;;;;;;;;;;;;;;1.38;43.87;104357.25;5001801;28;19925;-81
2023/02/07 00:09:31;;;;;;;;;;;;;;;1.34;44.08;104351.31;5000475;28;20509;-81
2023/02/07 00:11:57;;;;;;;;;;;;;;;1.32;44.56;104342.63;5003650;28;21229;-81
2023/02/07 00:14:22;;;;;;;;;;;;;;;1.30;44.28;104333.97;5000128;28;19917;-81
2023/02/07 00:16:47;;;;;;;;;;;;;;;1.31;44.41;104330.38;5000718;28;20308;-81
2023/02/07 00:19:13;;;;;;;;;;;;;;;1.28;44.22;104335.88;4998842;28;19971;-80
2023/02/07 00:21:38;;;;;;;;;;;;;;;1.23;43.90;104326.53;4999771;28;19977;-80
2023/02/07 00:24:04;;;;;;;;;;;;;;;1.21;44.05;104332.75;5002269;28;19921;-81
2023/02/07 00:26:29;;;;;;;;;;;;;;;1.21;44.22;104342.47;4999037;28;19980;-81
2023/02/07 00:28:55;;;;;;;;;;;;;;;1.20;44.18;104343.41;5002398;28;19918;-81
2023/02/07 00:31:22;;;;;;;;;;;;;;;1.19;43.90;104339.09;5005014;28;19928;-80
2023/02/07 00:33:48;;;;;;;;;;;;;;;1.16;43.88;104344.56;5002720;28;19921;-80
2023/02/07 00:36:16;;;;;;;;;;;;;;;1.16;44.15;104349.84;5003268;28;19988;-81
2023/02/07 00:38:42;;;;;;;;;;;;;;;1.07;44.09;104353.91;5002340;28;20051;-81
2023/02/07 00:41:08;;;;;;;;;;;;;;;0.98;43.93;104357.16;5001807;28;20016;-81
2023/02/07 00:43:33;;;;;;;;;;;;;;;0.94;44.44;104346.88;5001127;28;20421;-80
2023/02/07 00:46:00;;;;;;;;;;;;;;;0.93;44.24;104347.84;5003029;28;19975;-81
2023/02/07 00:48:26;;;;;;;;;;;;;;;0.92;44.36;104352.25;5004134;28;19934;-80
2023/02/07 00:50:52;;;;;;;;;;;;;;;0.92;43.93;104346.13;5004236;28;19922;-81
2023/02/07 00:53:17;;;;;;;;;;;;;;;0.90;44.59;104355.00;5004929;28;20346;-80
2023/02/07 00:55:42;;;;;;;;;;;;;;;0.88;44.16;104356.88;5004122;28;19917;-80
2023/02/07 00:58:08;;;;;;;;;;;;;;;0.87;44.40;104355.16;5003538;28;19952;-80
2023/02/07 01:00:33;;;;;;;;;;;;;;;0.85;44.33;104351.78;5006114;28;19918;-81
2023/02/07 01:02:58;;;;;;;;;;;;;;;0.83;43.68;104352.81;5003258;28;20004;-81
2023/02/07 01:05:24;;;;;;;;;;;;;;;0.80;44.25;104356.50;5004724;28;20402;-80
2023/02/07 01:07:49;;;;;;;;;;;;;;;0.76;44.15;104352.38;5004674;28;19917;-81
2023/02/07 01:10:14;;;;;;;;;;;;;;;0.72;44.33;104352.63;4999451;28;19932;-80
2023/02/07 01:12:40;;;;;;;;;;;;;;;0.67;43.93;104337.09;5001334;28;20181;-80
2023/02/07 01:15:06;;;;;;;;;;;;;;;0.64;43.90;104333.81;5002040;28;19921;-80
2023/02/07 01:17:31;;;;;;;;;;;;;;;0.59;43.98;104342.84;5001812;28;20406;-80
2023/02/07 01:19:57;;;;;;;;;;;;;;;0.57;43.79;104344.75;5001414;28;19949;-80
2023/02/07 01:22:23;;;;;;;;;;;;;;;0.55;44.03;104349.28;5002708;28;19917;-80
2023/02/07 01:24:48;;;;;;;;;;;;;;;0.49;43.65;104338.22;5002367;28;19929;-80
2023/02/07 01:27:13;;;;;;;;;;;;;;;0.46;44.22;104343.69;5001974;28;19925;-80
2023/02/07 01:29:39;;;;;;;;;;;;;;;0.42;44.21;104332.47;5007306;28;20493;-80
2023/02/07 01:32:04;;;;;;;;;;;;;;;0.42;43.61;104337.75;5007702;28;19917;-80
2023/02/07 01:34:29;;;;;;;;;;;;;;;0.38;44.19;104344.16;5005954;28;19918;-80
2023/02/07 01:36:55;;;;;;;;;;;;;;;0.34;43.93;104345.28;5004827;28;19918;-80
2023/02/07 01:39:20;;;;;;;;;;;;;;;0.34;44.44;104344.44;5006155;28;20306;-80
2023/02/07 01:41:45;;;;;;;;;;;;;;;0.31;44.21;104342.81;5005345;28;20288;-80
2023/02/07 01:44:23;;;;;;;;;;;;;;;0.26;44.41;104337.84;4990725;28;21336;-80
2023/02/07 01:46:50;;;;;;;;;;;;;;;0.22;44.41;104336.34;5003429;28;19960;-80
2023/02/07 01:49:16;;;;;;;;;;;;;;;0.18;43.91;104324.28;5006875;28;19933;-80
2023/02/07 01:51:48;;;;;;;;;;;;;;;0.16;44.41;104335.84;5007378;28;19928;-80
2023/02/07 01:54:15;;;;;;;;;;;;;;;0.15;44.54;104334.13;5007315;28;20071;-80
2023/02/07 01:56:43;;;;;;;;;;;;;;;0.14;44.23;104333.28;5007939;28;19918;-80
2023/02/07 01:59:09;;;;;;;;;;;;;;;0.14;44.53;104327.16;5004391;28;19917;-80
2023/02/07 02:01:35;;;;;;;;;;;;;;;0.13;44.50;104328.97;5005703;28;20001;-80
2023/02/07 02:04:00;;;;;;;;;;;;;;;0.10;44.35;104317.75;5004287;28;19997;-80
2023/02/07 02:06:27;;;;;;;;;;;;;;;0.06;44.88;104309.19;5008134;28;20299;-80
2023/02/07 02:08:55;;;;;;;;;;;;;;;0.06;44.68;104303.91;5004253;28;20379;-80
2023/02/07 02:11:39;;;;;;;;;;;;;;;0.06;44.79;104303.91;5007423;28;19928;-80
2023/02/07 02:14:27;;;;;;;;;;;;;;;0.04;44.10;104305.78;5004879;28;20288;-80
2023/02/07 02:17:14;;;;;;;;;;;;;;;0.04;44.91;104302.31;4998428;28;19917;-80
2023/02/07 02:19:59;;;;;;;;;;;;;;;0.03;44.73;104297.97;5005422;28;20307;-80
2023/02/07 02:22:24;;;;;;;;;;;;;;;0.02;44.75;104291.84;4958912;28;20019;-80
2023/02/07 02:25:13;;;;;;;;;;;;;;;0.01;44.95;104276.97;5004045;28;19922;-80
2023/02/07 02:27:57;;;;;;;;;;;;;;;0.01;44.57;104278.78;4962321;28;20087;-80
2023/02/07 02:30:25;;;;;;;;;;;;;;;-0.02;44.37;104285.03;5008215;28;20065;-80
2023/02/07 02:32:50;;;;;;;;;;;;;;;-0.02;44.32;104285.03;5009718;28;19928;-80
2023/02/07 02:35:16;;;;;;;;;;;;;;;-0.06;44.46;104297.56;4989574;28;19914;-80
2023/02/07 02:37:47;;;;;;;;;;;;;;;-0.10;44.38;104289.94;5007307;28;19918;-80
2023/02/07 02:40:23;;;;;;;;;;;;;;;-0.12;44.22;104286.56;5007469;28;20399;-80
2023/02/07 02:42:54;;;;;;;;;;;;;;;-0.16;44.29;104283.25;5007605;28;19929;-80
2023/02/07 02:45:32;;;;;;;;;;;;;;;-0.18;44.38;104279.00;5006466;28;19992;-80
2023/02/07 02:47:57;;;;;;;;;;;;;;;-0.19;45.04;104274.66;5001402;28;19917;-80
2023/02/07 02:50:26;;;;;;;;;;;;;;;-0.18;44.58;104269.31;5004115;28;19928;-80
2023/02/07 02:52:51;;;;;;;;;;;;;;;-0.17;44.94;104272.81;5002584;28;20372;-80
2023/02/07 02:55:21;;;;;;;;;;;;;;;-0.18;44.80;104273.72;5002560;28;19914;-80
2023/02/07 02:57:49;;;;;;;;;;;;;;;-0.19;44.78;104261.47;5004512;28;19930;-80
2023/02/07 03:00:24;;;;;;;;;;;;;;;-0.20;44.70;104267.69;4990826;28;20298;-80
2023/02/07 03:02:49;;;;;;;;;;;;;;;-0.24;44.65;104274.94;5001271;28;20279;-80
2023/02/07 03:05:33;;;;;;;;;;;;;;;-0.25;45.07;104270.63;4999301;28;19923;-80
2023/02/07 03:08:02;;;;;;;;;;;;;;;-0.27;44.52;104267.22;4999026;28;20279;-79
2023/02/07 03:10:39;;;;;;;;;;;;;;;-0.28;44.34;104267.31;5001037;28;19972;-80
2023/02/07 03:13:10;;;;;;;;;;;;;;;-0.29;44.50;104268.25;5001275;28;19919;-80
2023/02/07 03:15:57;;;;;;;;;;;;;;;-0.31;44.52;104258.66;5002130;28;19947;-80
2023/02/07 03:18:29;;;;;;;;;;;;;;;-0.34;44.65;104264.13;4998912;28;20331;-79
2023/02/07 03:21:02;;;;;;;;;;;;;;;-0.35;44.75;104267.69;5002389;28;19947;-80
2023/02/07 03:23:28;;;;;;;;;;;;;;;-0.36;44.60;104276.53;5003215;28;20342;-80
2023/02/07 03:25:55;;;;;;;;;;;;;;;-0.37;44.61;104280.06;5003279;28;19914;-80
2023/02/07 03:28:21;;;;;;;;;;;;;;;-0.38;44.35;104288.91;5027898;23;19979;-82
2023/02/07 03:30:49;;;;;;;;;;;;;;;-0.41;45.04;104298.78;5004672;28;19921;-82
2023/02/07 03:33:15;;;;;;;;;;;;;;;-0.46;44.59;104296.44;5017071;28;20007;-81
2023/02/07 03:35:47;;;;;;;;;;;;;;;-0.48;45.20;104297.47;5015045;28;19976;-82
2023/02/07 03:38:12;;;;;;;;;;;;;;;-0.49;44.58;104293.97;5014687;28;19913;-82
2023/02/07 03:40:41;;;;;;;;;;;;;;;-0.50;45.13;104299.34;5017490;28;19918;-82
2023/02/07 03:43:07;;;;;;;;;;;;;;;-0.52;45.11;104304.69;5016785;28;19917;-81
2023/02/07 03:45:32;;;;;;;;;;;;;;;-0.54;44.75;104311.81;5016868;28;19918;-82
2023/02/07 03:47:58;;;;;;;;;;;;;;;-0.54;44.62;104317.09;5017653;28;19972;-83
2023/02/07 03:50:25;;;;;;;;;;;;;;;-0.58;44.99;104315.56;5015102;28;20020;-82
2023/02/07 03:52:51;;;;;;;;;;;;;;;-0.61;45.22;104311.31;5017728;28;19913;-82
2023/02/07 03:55:16;;;;;;;;;;;;;;;-0.62;45.21;104316.69;5016756;28;19917;-85
2023/02/07 03:57:42;;;;;;;;;;;;;;;-0.61;45.44;104318.38;5016901;28;20027;-82
2023/02/07 04:00:07;;;;;;;;;;;;;;;-0.61;45.17;104318.38;5013083;28;20386;-81
2023/02/07 04:02:33;;;;;;;;;;;;;;;-0.60;45.30;104314.81;5017544;28;19913;-82
2023/02/07 04:04:58;;;;;;;;;;;;;;;-0.61;45.29;104310.47;5017982;28;19917;-81
2023/02/07 04:07:24;;;;;;;;;;;;;;;-0.65;45.43;104307.19;5017437;28;19979;-81
2023/02/07 04:09:49;;;;;;;;;;;;;;;-0.65;45.26;104315.06;5018389;28;19932;-81
2023/02/07 04:12:15;;;;;;;;;;;;;;;-0.65;44.78;104319.50;5017934;28;19940;-82
2023/02/07 04:14:40;;;;;;;;;;;;;;;-0.65;45.21;104319.50;5018146;28;19921;-81
2023/02/07 04:17:05;;;;;;;;;;;;;;;-0.67;45.42;104324.00;5018524;28;19921;-82
2023/02/07 04:19:31;;;;;;;;;;;;;;;-0.67;45.45;104319.59;5018449;28;19925;-81
2023/02/07 04:21:56;;;;;;;;;;;;;;;-0.67;45.21;104324.00;5018266;28;19928;-81
2023/02/07 04:24:21;;;;;;;;;;;;;;;-0.68;44.63;104323.16;5018658;28;19917;-82
2023/02/07 04:26:47;;;;;;;;;;;;;;;-0.70;44.74;104324.19;5018633;28;19996;-81
2023/02/07 04:29:12;;;;;;;;;;;;;;;-0.72;45.38;104312.84;5017599;28;20516;-83
2023/02/07 04:31:39;;;;;;;;;;;;;;;-0.74;44.93;104318.22;5017793;28;19928;-81
2023/02/07 04:34:04;;;;;;;;;;;;;;;-0.75;44.45;104321.78;5018759;28;19949;-82
2023/02/07 04:36:30;;;;;;;;;;;;;;;-0.75;44.52;104326.22;5014775;28;19918;-82
2023/02/07 04:38:55;;;;;;;;;;;;;;;-0.78;44.95;104321.97;5017825;28;19921;-83
2023/02/07 04:41:21;;;;;;;;;;;;;;;-0.79;45.12;104314.16;5014059;28;19917;-81
2023/02/07 04:43:46;;;;;;;;;;;;;;;-0.81;44.91;104319.50;5019381;28;19929;-82
2023/02/07 04:46:12;;;;;;;;;;;;;;;-0.83;44.73;104326.66;5019003;28;19917;-83
2023/02/07 04:48:37;;;;;;;;;;;;;;;-0.84;44.83;104326.75;5018587;28;20086;-82
2023/02/07 04:51:03;;;;;;;;;;;;;;;-0.87;44.70;104325.13;5018188;28;20031;-82
2023/02/07 04:53:28;;;;;;;;;;;;;;;-0.89;45.17;104328.78;5021114;28;19918;-85
2023/02/07 04:55:54;;;;;;;;;;;;;;;-0.92;44.54;104328.00;5026706;28;20181;-84
2023/02/07 04:58:20;;;;;;;;;;;;;;;-0.91;44.28;104326.22;5025246;28;19960;-82
2023/02/07 05:00:46;;;;;;;;;;;;;;;-0.95;44.89;104322.91;5027761;28;19924;-84
2023/02/07 05:03:11;;;;;;;;;;;;;;;-0.97;45.13;104323.94;5024533;28;19914;-82
2023/02/07 05:05:38;;;;;;;;;;;;;;;-0.98;45.20;104317.81;5027198;28;19926;-83
2023/02/07 05:08:03;;;;;;;;;;;;;;;-1.00;44.68;104310.94;5026856;28;19917;-82
2023/02/07 05:10:28;;;;;;;;;;;;;;;-1.02;45.39;104305.75;5027499;28;19917;-84
2023/02/07 05:12:56;;;;;;;;;;;;;;;-1.04;44.87;104305.00;5027503;28;19917;-83
2023/02/07 05:15:21;;;;;;;;;;;;;;;-1.06;44.73;104298.97;5026058;28;19925;-83
2023/02/07 05:17:46;;;;;;;;;;;;;;;-1.07;45.45;104294.66;5023589;28;19914;-83
2023/02/07 05:20:12;;;;;;;;;;;;;;;-1.07;45.06;104297.28;5019496;28;19913;-82
2023/02/07 05:22:37;;;;;;;;;;;;;;;-1.06;45.42;104300.75;5011982;28;19923;-82
2023/02/07 05:25:03;;;;;;;;;;;;;;;-1.07;45.06;104292.03;5012159;28;19917;-82
2023/02/07 05:27:28;;;;;;;;;;;;;;;-1.06;44.80;104288.44;5011032;28;20386;-82
2023/02/07 05:29:54;;;;;;;;;;;;;;;-1.08;45.15;104292.91;5008665;28;19971;-82
2023/02/07 05:35:03;;;;;;;;;;;;;;;-1.14;44.83;104293.28;5004362;28;19921;-82
2023/02/07 05:37:28;;;;;;;;;;;;;;;-1.15;45.33;104296.84;5011074;28;19913;-82
2023/02/07 05:39:53;;;;;;;;;;;;;;;-1.16;45.16;104284.63;5010971;28;19917;-84
2023/02/07 05:42:19;;;;;;;;;;;;;;;-1.13;45.91;104287.06;5002392;28;19964;-84
2023/02/07 05:44:44;;;;;;;;;;;;;;;-1.11;45.25;104298.34;5011167;28;20306;-84
2023/02/07 05:47:10;;;;;;;;;;;;;;;-1.10;45.13;104299.22;5010664;28;19917;-84
2023/02/07 05:49:38;;;;;;;;;;;;;;;-1.08;45.45;104302.59;5008140;28;20393;-84
2023/02/07 05:52:03;;;;;;;;;;;;;;;-1.09;44.92;104309.66;4993570;28;19917;-84
2023/02/07 05:54:29;;;;;;;;;;;;;;;-1.09;44.34;104306.16;5011416;28;19940;-84
2023/02/07 05:56:54;;;;;;;;;;;;;;;-1.11;45.35;104305.41;5011284;28;20032;-84
2023/02/07 05:59:20;;;;;;;;;;;;;;;-1.16;45.21;104300.41;5011018;28;19913;-84
2023/02/07 06:01:45;;;;;;;;;;;;;;;-1.20;45.10;104298.88;5005358;28;19921;-84
2023/02/07 06:04:10;;;;;;;;;;;;;;;-1.23;45.51;104302.53;5012282;28;19927;-84
2023/02/07 06:06:36;;;;;;;;;;;;;;;-1.25;44.96;104301.78;5011348;28;19945;-84
2023/02/07 06:09:03;;;;;;;;;;;;;;;-1.24;45.06;104303.47;5010170;28;19917;-84
2023/02/07 06:11:29;;;;;;;;;;;;;;;-1.24;44.81;104307.88;5011978;28;19917;-84
2023/02/07 06:13:54;;;;;;;;;;;;;;;-1.24;45.00;104300.00;5012325;28;19921;-85
2023/02/07 06:16:19;;;;;;;;;;;;;;;-1.25;45.65;104296.50;5017748;28;20295;-84
2023/02/07 06:18:45;;;;;;;;;;;;;;;-1.25;44.96;104295.66;5011348;28;19918;-82
2023/02/07 06:21:10;;;;;;;;;;;;;;;-1.26;45.27;104289.56;5013651;28;19925;-82
2023/02/07 06:23:36;;;;;;;;;;;;;;;-1.24;45.06;104292.09;5009301;28;19922;-82
2023/02/07 06:26:01;;;;;;;;;;;;;;;-1.21;45.82;104291.91;5009578;28;20453;-82
2023/02/07 06:28:26;;;;;;;;;;;;;;;-1.18;45.46;104288.28;5008387;28;19952;-83
2023/02/07 06:30:52;;;;;;;;;;;;;;;-1.16;45.77;104291.66;5006697;28;19921;-82
2023/02/07 06:33:17;;;;;;;;;;;;;;;-1.16;45.97;104289.03;5008784;28;19921;-85
2023/02/07 06:35:46;;;;;;;;;;;;;;;-1.15;45.07;104296.84;5014793;28;19913;-82
2023/02/07 06:38:14;;;;;;;;;;;;;;;-1.18;45.26;104286.50;5009134;28;19921;-84
2023/02/07 06:40:40;;;;;;;;;;;;;;;-1.19;45.77;104290.06;5011941;28;19925;-83
2023/02/07 06:43:05;;;;;;;;;;;;;;;-1.18;45.94;104293.53;5013433;28;20015;-84
2023/02/07 06:45:31;;;;;;;;;;;;;;;-1.15;45.86;104288.94;5013093;28;19975;-82
2023/02/07 06:47:56;;;;;;;;;;;;;;;-1.14;45.80;104287.16;5011801;28;19921;-82
2023/02/07 06:50:21;;;;;;;;;;;;;;;-1.12;45.48;104295.81;5012442;28;20012;-82
2023/02/07 06:52:47;;;;;;;;;;;;;;;-1.10;45.77;104288.69;5013171;28;19929;-82
2023/02/07 06:55:12;;;;;;;;;;;;;;;-1.09;46.30;104285.97;5013210;28;19918;-82
2023/02/07 06:57:37;;;;;;;;;;;;;;;-1.04;45.97;104288.38;5011644;28;20117;-82
2023/02/07 07:00:03;;;;;;;;;;;;;;;-1.00;45.83;104289.88;5012933;28;19917;-82
2023/02/07 07:02:29;;;;;;;;;;;;;;;-0.97;46.11;104295.81;5012772;28;20389;-83
2023/02/07 07:04:54;;;;;;;;;;;;;;;-0.92;46.14;104293.78;5012813;28;20410;-82
2023/02/07 07:07:19;;;;;;;;;;;;;;;-0.88;46.13;104285.72;5013082;28;19918;-83
2023/02/07 07:09:45;;;;;;;;;;;;;;;-0.82;46.18;104293.28;5012810;28;20016;-82
2023/02/07 07:12:10;;;;;;;;;;;;;;;-0.78;46.42;104295.63;5013168;28;19965;-82
2023/02/07 07:14:36;;;;;;;;;;;;;;;-0.74;45.88;104297.16;5011687;28;19922;-83
2023/02/07 07:17:02;;;;;;;;;;;;;;;-0.72;46.28;104291.78;5012180;28;20015;-83
2023/02/07 07:19:27;;;;;;;;;;;;;;;-0.68;46.53;104295.97;5011284;28;20019;-82
2023/02/07 07:21:54;;;;;;;;;;;;;;;-0.65;46.60;104298.44;5011844;28;19924;-83
2023/02/07 07:24:20;;;;;;;;;;;;;;;-0.59;46.81;104294.59;5011435;28;19917;-84
2023/02/07 07:26:45;;;;;;;;;;;;;;;-0.53;46.20;104295.09;5009473;28;20000;-82
2023/02/07 07:29:11;;;;;;;;;;;;;;;-0.47;46.53;104297.38;5009994;28;20048;-83
2023/02/07 07:31:36;;;;;;;;;;;;;;;-0.43;46.45;104298.88;5008743;28;20390;-83
2023/02/07 07:34:01;;;;;;;;;;;;;;;-0.38;47.06;104291.56;5010293;28;19921;-83
2023/02/07 07:36:27;;;;;;;;;;;;;;;-0.32;46.32;104288.59;5008997;28;20399;-83
2023/02/07 07:38:52;;;;;;;;;;;;;;;-0.22;46.32;104296.78;5009191;28;19925;-83
2023/02/07 07:41:18;;;;;;;;;;;;;;;-0.10;46.25;104297.84;5009890;28;19918;-85
2023/02/07 07:43:43;;;;;;;;;;;;;;;0.01;46.23;104298.06;5009358;28;19948;-86
2023/02/07 07:46:09;;;;;;;;;;;;;;;0.11;46.67;104301.84;5010064;28;19917;-83
2023/02/07 07:48:34;;;;;;;;;;;;;;;0.20;46.31;104300.44;5007686;28;19924;-84
2023/02/07 07:50:59;;;;;;;;;;;;;;;0.27;46.50;104301.75;5010381;28;19921;-84
2023/02/07 07:53:25;;;;;;;;;;;;;;;0.37;46.47;104302.06;5009474;28;19985;-85
2023/02/07 07:55:52;;;;;;;;;;;;;;;0.46;46.52;104301.47;4991419;28;19944;-83
2023/02/07 07:58:18;;;;;;;;;;;;;;;0.57;46.38;104305.16;5010241;28;19928;-85
2023/02/07 08:00:43;;;;;;;;;;;;;;;0.68;46.80;104307.13;4990773;28;19921;-83
2023/02/07 08:03:09;;;;;;;;;;;;;;;0.79;46.28;104311.72;4991823;28;20294;-83
2023/02/07 08:05:35;;;;;;;;;;;;;;;0.88;46.68;104313.78;5009485;28;19940;-83
2023/02/07 08:08:00;;;;;;;;;;;;;;;0.97;46.57;104309.72;5009939;28;20371;-85
2023/02/07 08:10:25;;;;;;;;;;;;;;;1.03;46.82;104315.44;5008915;28;20220;-85
2023/02/07 08:12:51;;;;;;;;;;;;;;;1.13;46.53;104313.06;5009771;28;20168;-84
2023/02/07 08:15:16;;;;;;;;;;;;;;;1.22;46.52;104323.03;4992697;28;20036;-83
2023/02/07 08:17:42;;;;;;;;;;;;;;;1.31;47.23;104333.03;5008762;28;19928;-84
2023/02/07 08:20:07;;;;;;;;;;;;;;;1.39;46.86;104325.44;5009955;28;19917;-83
2023/02/07 08:22:33;;;;;;;;;;;;;;;1.50;46.53;104330.88;5009207;28;19918;-84
2023/02/07 08:24:58;;;;;;;;;;;;;;;1.61;46.85;104331.94;5009800;28;19918;-86
2023/02/07 08:27:24;;;;;;;;;;;;;;;1.73;46.94;104339.06;5009146;28;19940;-85
2023/02/07 08:29:49;;;;;;;;;;;;;;;1.87;47.08;104351.38;5009759;28;20290;-83
2023/02/07 08:32:15;;;;;;;;;;;;;;;2.00;46.40;104349.63;5009957;28;19917;-84
2023/02/07 08:34:40;;;;;;;;;;;;;;;2.11;46.65;104349.72;5008955;28;20383;-84
2023/02/07 08:37:07;;;;;;;;;;;;;;;2.22;46.55;104354.28;5005899;28;19922;-84
2023/02/07 08:39:33;;;;;;;;;;;;;;;2.32;46.64;104350.88;5008813;28;19972;-84
2023/02/07 08:41:59;;;;;;;;;;;;;;;2.45;46.50;104348.25;5007651;28;19922;-85
2023/02/07 08:44:25;;;;;;;;;;;;;;;2.59;46.43;104347.28;5009259;28;19917;-84
2023/02/07 08:46:50;;;;;;;;;;;;;;;2.72;46.49;104341.03;5010131;28;20337;-84
2023/02/07 08:49:15;;;;;;;;;;;;;;;2.87;46.52;104346.19;5008710;28;19921;-85
2023/02/07 08:51:41;;;;;;;;;;;;;;;3.01;46.41;104352.19;5008480;28;19925;-84
2023/02/07 08:54:07;;;;;;;;;;;;;;;3.13;46.68;104355.75;5009949;28;19917;-84
2023/02/07 08:56:32;;;;;;;;;;;;;;;3.27;46.64;104355.63;5008776;28;19980;-85
2023/02/07 08:58:58;;;;;;;;;;;;;;;3.40;46.50;104352.91;5009842;28;20096;-85
2023/02/07 09:01:24;;;;;;;;;;;;;;;3.52;46.88;104351.16;5009446;28;20140;-85
2023/02/07 09:03:50;;;;;;;;;;;;;;;3.61;46.66;104350.50;5009295;28;19922;-85
2023/02/07 09:06:15;;;;;;;;;;;;;;;3.70;46.64;104355.09;5009277;28;19933;-85
2023/02/07 09:08:40;;;;;;;;;;;;;;;3.83;46.85;104349.72;5008103;28;20027;-86
2023/02/07 09:11:06;;;;;;;;;;;;;;;4.03;46.71;104364.13;5008821;28;20437;-85
2023/02/07 09:13:31;;;;;;;;;;;;;;;4.19;46.69;104354.03;5008339;28;19963;-85
2023/02/07 09:15:57;;;;;;;;;;;;;;;4.35;46.35;104357.22;5008521;28;20363;-85
2023/02/07 09:18:24;;;;;;;;;;;;;;;4.48;46.21;104359.75;5008635;28;19918;-85
2023/02/07 09:20:49;;;;;;;;;;;;;;;4.61;46.38;104363.13;5007133;28;19917;-85
2023/02/07 09:23:22;;;;;;;;;;;;;;;4.74;46.38;104363.88;5008840;28;19940;-85
2023/02/07 09:25:51;;;;;;;;;;;;;;;4.84;46.50;104358.66;5008040;28;19921;-86
2023/02/07 09:28:19;;;;;;;;;;;;;;;4.95;46.09;104371.94;5008695;28;19965;-86
2023/02/07 09:30:50;;;;;;;;;;;;;;;5.13;46.45;104374.94;5008120;28;19976;-86
2023/02/07 09:33:22;;;;;;;;;;;;;;;5.26;46.52;104373.00;4991713;28;19926;-87
2023/02/07 09:35:48;;;;;;;;;;;;;;;5.38;46.17;104379.09;5003458;28;19965;-86
2023/02/07 09:38:18;;;;;;;;;;;;;;;5.48;46.21;104380.06;5007885;28;19917;-86
2023/02/07 09:40:44;;;;;;;;;;;;;;;5.61;46.02;104382.56;5007589;28;20406;-86
2023/02/07 09:43:12;;;;;;;;;;;;;;;5.71;45.97;104381.66;5008632;28;19917;-86
2023/02/07 09:45:44;;;;;;;;;;;;;;;5.79;45.90;104382.84;5007580;28;19995;-86
2023/02/07 09:48:19;;;;;;;;;;;;;;;5.89;45.93;104381.09;5004108;28;19991;-86
2023/02/07 09:51:04;;;;;;;;;;;;;;;6.06;46.13;104383.22;5011521;28;20025;-86
2023/02/07 09:53:36;;;;;;;;;;;;;;;6.25;45.76;104378.03;5010478;28;19972;-87
2023/02/07 09:56:02;;;;;;;;;;;;;;;6.42;45.92;104370.41;5006453;28;19971;-87
2023/02/07 09:58:46;;;;;;;;;;;;;;;6.53;45.48;104368.53;5010890;28;19917;-86
2023/02/07 10:01:16;;;;;;;;;;;;;;;6.64;45.65;104370.22;5007347;28;19921;-86
2023/02/07 10:03:54;;;;;;;;;;;;;;;6.78;45.54;104369.03;5011204;28;19944;-87
2023/02/07 10:06:25;;;;;;;;;;;;;;;6.88;45.24;104373.44;5011724;28;19917;-88
2023/02/07 10:08:53;;;;;;;;;;;;;;;7.02;45.60;104371.38;5012108;28;19917;-86
2023/02/07 10:11:27;;;;;;;;;;;;;;;7.20;45.28;104372.41;5011516;28;19921;-87
2023/02/07 10:14:08;;;;;;;;;;;;;;;7.34;45.04;104374.66;5011918;28;20393;-87
2023/02/07 10:16:45;;;;;;;;;;;;;;;7.40;45.35;104379.47;5011104;28;19917;-87
2023/02/07 10:19:21;;;;;;;;;;;;;;;7.46;44.95;104378.06;5011558;28;19971;-87
2023/02/07 10:22:05;;;;;;;;;;;;;;;7.48;44.91;104382.25;5011383;28;19931;-87
2023/02/07 10:24:56;;;;;;;;;;;;;;;7.51;45.02;104384.66;5011088;28;19918;-87
2023/02/07 10:27:28;;;;;;;;;;;;;;;7.56;45.09;104398.44;5008478;28;20173;-87
2023/02/07 10:29:53;;;;;;;;;;;;;;;7.65;45.01;104398.56;5005987;28;19945;-87
2023/02/07 10:32:29;;;;;;;;;;;;;;;7.76;45.21;104403.78;5011753;28;20379;-87
2023/02/07 10:35:01;;;;;;;;;;;;;;;7.85;44.92;104393.09;5012184;28;19917;-88
2023/02/07 10:37:29;;;;;;;;;;;;;;;7.93;44.92;104387.06;5011048;28;19921;-87
2023/02/07 10:40:15;;;;;;;;;;;;;;;7.99;44.84;104381.16;5011687;28;19917;-87
2023/02/07 10:42:44;;;;;;;;;;;;;;;8.09;44.80;104384.66;5010868;28;20060;-87
2023/02/07 10:45:13;;;;;;;;;;;;;;;8.25;45.14;104391.22;5011522;28;20375;-87
2023/02/07 10:47:39;;;;;;;;;;;;;;;8.40;44.57;104384.47;5010056;28;19921;-87
2023/02/07 10:50:18;;;;;;;;;;;;;;;8.56;44.48;104379.34;5011989;28;19921;-88
2023/02/07 10:52:51;;;;;;;;;;;;;;;8.75;44.58;104373.09;4986102;28;19922;-87
2023/02/07 10:55:18;;;;;;;;;;;;;;;8.81;43.68;104369.84;5011261;28;20019;-87
2023/02/07 10:57:54;;;;;;;;;;;;;;;8.89;44.06;104375.28;5009386;28;20260;-87
2023/02/07 11:00:24;;;;;;;;;;;;;;;9.00;44.33;104364.41;5010843;28;20010;-89
2023/02/07 11:02:54;;;;;;;;;;;;;;;9.17;43.96;104361.91;5011038;28;20476;-87
2023/02/07 11:05:20;;;;;;;;;;;;;;;9.29;43.65;104356.16;5011563;28;19917;-87
2023/02/07 11:08:05;;;;;;;;;;;;;;;9.44;43.69;104347.63;5010297;28;20048;-87
2023/02/07 11:10:37;;;;;;;;;;;;;;;9.52;42.69;104345.03;4985301;28;19922;-87
2023/02/07 11:13:04;;;;;;;;;;;;;;;9.58;42.75;104339.06;4987402;28;20004;-86
2023/02/07 11:15:46;;;;;;;;;;;;;;;9.69;42.95;104341.47;5010164;28;20008;-87
2023/02/07 11:18:24;;;;;;;;;;;;;;;9.84;42.88;104325.72;5005998;28;20445;-87
2023/02/07 11:20:51;;;;;;;;;;;;;;;9.97;43.05;104318.94;5009581;28;19960;-87
2023/02/07 11:23:17;;;;;;;;;;;;;;;9.98;42.27;104325.97;5009973;28;20294;-87
2023/02/07 11:25:44;;;;;;;;;;;;;;;10.06;42.06;104322.53;5010040;28;20049;-87
2023/02/07 11:28:18;;;;;;;;;;;;;;;10.20;42.11;104318.41;5006680;28;19917;-87
2023/02/07 11:30:44;;;;;;;;;;;;;;;10.12;40.55;104319.22;5008111;28;19925;-87
2023/02/07 11:33:16;;;;;;;;;;;;;;;10.15;41.77;104313.53;5010956;28;20291;-88
2023/02/07 11:35:59;;;;;;;;;;;;;;;10.27;41.41;104306.09;5010619;28;19929;-87
2023/02/07 11:38:27;;;;;;;;;;;;;;;10.39;41.03;104295.94;5010093;28;19924;-87
2023/02/07 11:40:57;;;;;;;;;;;;;;;10.51;41.21;104297.34;5010677;28;19929;-87
2023/02/07 11:43:22;;;;;;;;;;;;;;;10.57;41.22;104302.03;5001246;28;20089;-87
2023/02/07 11:45:50;;;;;;;;;;;;;;;10.64;40.88;104292.38;5004160;28;19917;-87
2023/02/07 11:48:17;;;;;;;;;;;;;;;10.65;41.14;104302.09;4999244;28;19917;-87
2023/02/07 11:50:45;;;;;;;;;;;;;;;10.76;41.14;104288.38;5001175;28;19922;-86
2023/02/07 11:53:29;;;;;;;;;;;;;;;10.89;40.93;104280.69;5002883;28;19937;-87
2023/02/07 11:55:55;;;;;;;;;;;;;;;11.06;41.24;104281.56;5004554;28;19964;-86
2023/02/07 11:58:37;;;;;;;;;;;;;;;11.16;40.45;104276.91;5006780;28;19918;-87
2023/02/07 12:01:06;;;;;;;;;;;;;;;11.27;40.88;104278.41;5006708;28;19917;-87
2023/02/07 12:03:42;;;;;;;;;;;;;;;11.44;40.68;104265.81;5005389;28;20020;-87
2023/02/07 12:06:12;;;;;;;;;;;;;;;11.58;39.84;104261.63;5004954;28;19922;-87
2023/02/07 12:08:37;;;;;;;;;;;;;;;11.64;40.34;104259.09;5005772;28;19918;-86
2023/02/07 12:11:09;;;;;;;;;;;;;;;11.66;39.87;104253.56;5006875;28;19928;-86
2023/02/07 12:13:38;;;;;;;;;;;;;;;11.76;39.90;104259.59;5008197;28;19918;-87
2023/02/07 12:16:10;;;;;;;;;;;;;;;11.80;39.68;104245.66;5011243;28;19940;-87
2023/02/07 12:18:36;;;;;;;;;;;;;;;11.99;39.42;104259.75;5009144;28;20383;-89
2023/02/07 12:21:20;;;;;;;;;;;;;;;11.96;39.29;104255.56;5009165;28;19917;-87
2023/02/07 12:23:48;;;;;;;;;;;;;;;11.87;38.65;104245.84;5009219;28;20371;-87
2023/02/07 12:26:22;;;;;;;;;;;;;;;11.87;39.30;104245.00;5009209;28;20272;-87
2023/02/07 12:28:53;;;;;;;;;;;;;;;11.90;38.83;104250.03;5009143;28;20046;-87
2023/02/07 12:31:28;;;;;;;;;;;;;;;11.82;38.69;104250.88;5009394;28;19926;-87
2023/02/07 12:34:00;;;;;;;;;;;;;;;11.69;38.72;104251.38;5006157;28;19959;-87
2023/02/07 12:36:31;;;;;;;;;;;;;;;11.77;38.64;104243.31;5006934;28;19972;-87
2023/02/07 12:39:02;;;;;;;;;;;;;;;11.90;38.39;104252.72;5005722;28;20008;-89
2023/02/07 12:41:33;;;;;;;;;;;;;;;11.99;37.98;104259.75;5007750;28;20318;-88
2023/02/07 12:44:04;;;;;;;;;;;;;;;11.96;37.82;104252.88;5006226;28;19925;-88
2023/02/07 12:46:35;;;;;;;;;;;;;;;12.00;36.91;104253.34;5007671;28;19948;-87
2023/02/07 12:49:10;;;;;;;;;;;;;;;12.12;36.19;104253.84;5010167;28;19925;-87